Time;durP1;ratioP1;P1;durP2;ratioP2;P2;SDS_P1;SDS_P2;PMS_P1;PMS_P2;Temp;Humidity;BMP_temperature;BMP_pressure;BME280_temperature;BME280_humidity;BME280_pressure;Samples;Min_cycle;Max_cycle;Signal;HPM_P1;HPM_P2
2023/09/18 04:32:14;;;;;;;0.00;0.00;;;19.10;86.40;;;;;;5036529;23;20056;-85
2023/09/18 04:34:39;;;;;;;0.00;0.00;;;19.20;86.50;;;;;;4926692;29;20020;-86
2023/09/18 04:37:05;;;;;;;0.00;0.00;;;19.20;86.30;;;;;;4927545;29;20040;-85
2023/09/18 04:39:33;;;;;;;0.08;0.08;;;19.30;86.10;;;;;;4904224;29;20043;-86
2023/09/18 04:42:00;;;;;;;0.00;0.00;;;19.30;85.90;;;;;;4920723;29;20055;-86
2023/09/18 04:44:27;;;;;;;0.00;0.00;;;19.30;85.80;;;;;;4930603;29;20032;-87
2023/09/18 04:46:52;;;;;;;0.00;0.00;;;19.40;85.70;;;;;;4904076;29;20040;-86
2023/09/18 04:49:18;;;;;;;0.00;0.00;;;19.40;85.50;;;;;;4911027;29;20091;-84
2023/09/18 04:51:44;;;;;;;0.00;0.00;;;19.40;85.70;;;;;;4930616;29;20522;-84
2023/09/18 04:54:10;;;;;;;0.00;0.00;;;19.40;85.80;;;;;;4903186;29;20020;-85
2023/09/18 04:56:37;;;;;;;0.00;0.00;;;19.50;85.70;;;;;;4920904;29;20491;-79
2023/09/18 04:59:03;;;;;;;0.00;0.00;;;19.50;85.50;;;;;;4920156;29;20024;-78
2023/09/18 05:01:30;;;;;;;0.00;0.00;;;19.40;85.50;;;;;;4921371;29;20766;-78
2023/09/18 05:03:55;;;;;;;0.00;0.00;;;19.40;85.20;;;;;;4914143;29;20020;-78
2023/09/18 05:06:21;;;;;;;0.00;0.00;;;19.30;85.00;;;;;;4927257;29;20087;-79
2023/09/18 05:08:47;;;;;;;0.00;0.00;;;19.40;85.10;;;;;;4938412;29;20026;-77
2023/09/18 05:11:12;;;;;;;0.00;0.00;;;19.30;84.80;;;;;;4936206;29;20043;-85
2023/09/18 05:13:38;;;;;;;0.00;0.00;;;19.20;85.10;;;;;;4919561;29;20088;-82
2023/09/18 05:16:04;;;;;;;0.00;0.00;;;19.10;85.10;;;;;;4920648;29;20024;-79
2023/09/18 05:18:29;;;;;;;0.00;0.00;;;19.10;85.50;;;;;;4920835;29;20035;-80
2023/09/18 05:20:55;;;;;;;0.00;0.00;;;19.00;85.50;;;;;;4920152;29;20032;-80
2023/09/18 05:23:21;;;;;;;0.00;0.00;;;19.10;85.70;;;;;;4904458;29;20036;-92
2023/09/18 05:25:47;;;;;;;0.00;0.00;;;19.00;85.80;;;;;;4921157;29;20036;-92
2023/09/18 05:28:13;;;;;;;0.10;0.10;;;19.00;85.70;;;;;;4918375;29;20036;-89
2023/09/18 05:30:39;;;;;;;0.00;0.00;;;19.00;85.90;;;;;;4935392;29;20396;-85
2023/09/18 05:33:06;;;;;;;0.00;0.00;;;19.00;86.00;;;;;;4915033;29;20024;-83
2023/09/18 05:35:36;;;;;;;0.00;0.00;;;19.00;85.90;;;;;;4920271;29;20052;-84
2023/09/18 05:38:03;;;;;;;0.00;0.00;;;19.00;85.90;;;;;;4920501;29;20039;-84
2023/09/18 05:40:29;;;;;;;0.00;0.00;;;19.00;86.00;;;;;;4921331;29;20165;-82
2023/09/18 05:42:55;;;;;;;0.00;0.00;;;19.00;86.00;;;;;;4928044;29;20652;-79
2023/09/18 05:45:21;;;;;;;0.00;0.00;;;19.00;85.90;;;;;;4932488;29;20040;-80
2023/09/18 05:47:48;;;;;;;0.00;0.00;;;19.10;85.90;;;;;;4876274;29;20052;-80
2023/09/18 05:50:17;;;;;;;0.10;0.10;;;19.00;85.80;;;;;;4900923;29;20084;-79
2023/09/18 05:52:47;;;;;;;0.00;0.00;;;19.10;85.80;;;;;;4914167;29;20024;-79
2023/09/18 05:55:15;;;;;;;0.00;0.00;;;19.10;85.70;;;;;;4904421;29;20099;-82
2023/09/18 05:57:41;;;;;;;0.00;0.00;;;19.10;85.80;;;;;;4898359;29;20028;-82
2023/09/18 06:00:07;;;;;;;0.00;0.00;;;19.10;85.80;;;;;;4904610;29;20119;-83
2023/09/18 06:02:33;;;;;;;0.00;0.00;;;19.20;85.70;;;;;;4916277;29;20080;-83
2023/09/18 06:05:00;;;;;;;0.00;0.00;;;19.20;85.60;;;;;;4901914;29;20514;-83
2023/09/18 06:07:27;;;;;;;0.00;0.00;;;19.20;85.50;;;;;;4919659;29;20028;-83
2023/09/18 06:09:53;;;;;;;0.00;0.00;;;19.20;85.60;;;;;;4938716;29;20027;-83
2023/09/18 06:12:18;;;;;;;0.00;0.00;;;19.30;85.60;;;;;;4939052;29;20023;-83
2023/09/18 06:14:46;;;;;;;0.00;0.00;;;19.30;85.70;;;;;;4923767;29;20035;-83
2023/09/18 06:17:12;;;;;;;0.00;0.00;;;19.30;85.50;;;;;;4910644;29;20495;-87
2023/09/18 06:19:38;;;;;;;0.00;0.00;;;19.30;85.60;;;;;;4907313;29;20122;-85
2023/09/18 06:22:04;;;;;;;0.10;0.10;;;19.30;85.50;;;;;;4911967;29;20043;-83
2023/09/18 06:24:30;;;;;;;0.00;0.00;;;19.40;85.70;;;;;;4917620;29;20035;-83
2023/09/18 06:26:55;;;;;;;0.00;0.00;;;19.40;85.60;;;;;;4916843;29;20846;-82
2023/09/18 06:29:21;;;;;;;0.10;0.00;;;19.40;85.60;;;;;;4919561;29;20059;-83
2023/09/18 06:31:47;;;;;;;0.00;0.00;;;19.40;85.80;;;;;;4914300;29;20076;-83
2023/09/18 06:34:12;;;;;;;0.10;0.10;;;19.40;85.90;;;;;;4916345;29;20051;-83
2023/09/18 06:36:38;;;;;;;0.00;0.00;;;19.40;86.00;;;;;;4919003;29;20040;-83
2023/09/18 06:39:04;;;;;;;0.00;0.00;;;19.50;86.10;;;;;;4933693;29;20144;-83
2023/09/18 06:41:29;;;;;;;0.00;0.00;;;19.50;86.00;;;;;;4934057;29;20457;-83
2023/09/18 06:43:56;;;;;;;0.10;0.10;;;19.60;85.80;;;;;;4938451;29;20034;-83
2023/09/18 06:46:22;;;;;;;0.00;0.00;;;19.70;85.60;;;;;;4926074;29;20025;-84
2023/09/18 06:48:50;;;;;;;0.00;0.00;;;19.60;85.70;;;;;;4883403;29;20040;-83
2023/09/18 06:51:16;;;;;;;0.10;0.10;;;19.80;85.60;;;;;;4900039;29;20044;-83
2023/09/18 06:53:44;;;;;;;0.10;0.10;;;19.80;85.50;;;;;;4886010;29;20035;-83
2023/09/18 06:56:10;;;;;;;0.00;0.00;;;19.80;85.40;;;;;;4919110;29;20024;-83
2023/09/18 06:58:36;;;;;;;0.00;0.00;;;19.90;85.40;;;;;;4902305;29;20032;-83
2023/09/18 07:01:03;;;;;;;0.03;0.03;;;19.90;85.30;;;;;;4917684;29;20436;-83
2023/09/18 07:03:28;;;;;;;0.00;0.00;;;19.90;85.00;;;;;;4918712;29;20047;-84
2023/09/18 07:05:54;;;;;;;0.10;0.10;;;20.00;85.10;;;;;;4919456;29;20017;-84
2023/09/18 07:08:22;;;;;;;0.00;0.00;;;20.00;85.10;;;;;;4917290;29;20539;-83
2023/09/18 07:10:50;;;;;;;0.00;0.00;;;20.00;85.10;;;;;;4918783;29;20052;-84
2023/09/18 07:13:16;;;;;;;0.00;0.00;;;20.00;84.90;;;;;;4902029;29;20247;-83
2023/09/18 07:15:42;;;;;;;0.10;0.10;;;20.00;85.10;;;;;;4901439;29;20096;-83
2023/09/18 07:18:09;;;;;;;0.00;0.00;;;20.00;85.00;;;;;;4918745;29;20487;-83
2023/09/18 07:20:36;;;;;;;0.00;0.00;;;20.00;85.10;;;;;;4918462;29;20038;-83
2023/09/18 07:23:01;;;;;;;0.00;0.00;;;20.00;84.90;;;;;;4932715;29;20028;-83
2023/09/18 07:25:27;;;;;;;0.00;0.00;;;20.10;84.80;;;;;;4918079;29;20483;-83
2023/09/18 07:27:52;;;;;;;0.00;0.00;;;20.10;84.80;;;;;;4905214;29;20653;-83
2023/09/18 07:30:20;;;;;;;0.00;0.00;;;20.00;84.80;;;;;;4919952;29;20039;-83
2023/09/18 07:32:46;;;;;;;0.00;0.00;;;20.20;84.60;;;;;;4920899;29;20057;-83
2023/09/18 07:35:14;;;;;;;0.00;0.00;;;20.10;84.30;;;;;;4905606;29;20121;-84
2023/09/18 07:37:40;;;;;;;0.00;0.00;;;20.10;84.10;;;;;;4905648;29;20176;-84
2023/09/18 07:40:07;;;;;;;0.00;0.00;;;20.00;84.30;;;;;;4912347;29;20103;-83
2023/09/18 07:42:33;;;;;;;0.10;0.10;;;20.00;84.30;;;;;;4924330;29;20039;-84
2023/09/18 07:44:59;;;;;;;0.00;0.00;;;20.00;84.40;;;;;;4924410;29;20043;-84
2023/09/18 07:47:25;;;;;;;0.00;0.00;;;20.00;84.20;;;;;;4928872;29;20107;-82
2023/09/18 07:49:51;;;;;;;0.00;0.00;;;20.00;84.30;;;;;;4923675;29;20028;-82
2023/09/18 07:52:17;;;;;;;0.10;0.10;;;20.10;84.30;;;;;;4927430;29;20047;-83
2023/09/18 07:54:43;;;;;;;0.00;0.00;;;19.90;84.00;;;;;;4941329;29;20030;-83
2023/09/18 07:57:09;;;;;;;0.00;0.00;;;20.00;84.00;;;;;;4930786;29;20059;-84
2023/09/18 07:59:36;;;;;;;0.00;0.00;;;20.00;83.80;;;;;;4921968;29;20407;-83
2023/09/18 08:02:02;;;;;;;0.05;0.05;;;20.00;83.80;;;;;;4921433;29;20049;-83
2023/09/18 08:04:31;;;;;;;0.00;0.00;;;20.10;83.80;;;;;;4903626;29;20032;-84
2023/09/18 08:06:56;;;;;;;0.00;0.00;;;20.10;83.70;;;;;;4905332;29;20028;-84
2023/09/18 08:09:22;;;;;;;0.03;0.03;;;20.10;83.40;;;;;;4921809;29;20510;-84
2023/09/18 08:11:49;;;;;;;0.00;0.00;;;20.20;83.10;;;;;;4921182;29;20028;-84
2023/09/18 08:14:17;;;;;;;0.00;0.00;;;20.40;82.80;;;;;;4921741;29;20099;-85
2023/09/18 08:16:42;;;;;;;0.00;0.00;;;20.40;81.60;;;;;;4904778;29;20168;-83
2023/09/18 08:19:09;;;;;;;0.00;0.00;;;20.50;81.30;;;;;;4924065;29;20107;-83
2023/09/18 08:21:34;;;;;;;0.10;0.10;;;20.60;81.60;;;;;;4920559;29;20028;-83
2023/09/18 08:24:00;;;;;;;0.00;0.00;;;20.80;81.40;;;;;;4921205;29;20031;-85
2023/09/18 08:26:27;;;;;;;0.03;0.03;;;20.90;81.10;;;;;;4921615;29;20111;-84
2023/09/18 08:28:53;;;;;;;0.00;0.00;;;20.80;80.10;;;;;;4921194;29;20020;-84
2023/09/18 08:31:18;;;;;;;0.10;0.10;;;21.00;79.90;;;;;;4914426;29;20056;-83
2023/09/18 08:33:44;;;;;;;0.00;0.00;;;21.20;79.60;;;;;;4906755;29;20032;-83
2023/09/18 08:36:10;;;;;;;0.00;0.00;;;21.30;78.60;;;;;;4921511;29;20132;-83
2023/09/18 08:38:35;;;;;;;0.00;0.00;;;21.50;78.90;;;;;;4902851;29;20055;-84
2023/09/18 08:41:02;;;;;;;0.00;0.00;;;21.60;77.70;;;;;;4920122;29;20032;-83
2023/09/18 08:43:30;;;;;;;0.00;0.00;;;21.50;78.20;;;;;;4903859;29;20032;-84
2023/09/18 08:46:01;;;;;;;0.00;0.00;;;21.50;77.30;;;;;;4920969;29;20032;-84
2023/09/18 08:48:34;;;;;;;0.00;0.00;;;21.40;77.10;;;;;;4920991;29;20036;-83
2023/09/18 08:51:04;;;;;;;0.00;0.00;;;21.40;77.30;;;;;;4920314;29;20024;-83
2023/09/18 08:53:31;;;;;;;0.00;0.00;;;21.30;76.60;;;;;;4920339;29;20098;-83
2023/09/18 08:56:01;;;;;;;0.03;0.03;;;21.30;77.00;;;;;;4903955;29;20020;-83
2023/09/18 08:58:28;;;;;;;0.08;0.00;;;21.40;77.50;;;;;;4920970;29;20024;-84
2023/09/18 09:00:54;;;;;;;0.00;0.00;;;21.40;76.30;;;;;;4919842;29;20023;-83
2023/09/18 09:03:20;;;;;;;0.00;0.00;;;21.50;76.50;;;;;;4904051;29;20119;-83
2023/09/18 09:05:46;;;;;;;0.00;0.00;;;21.70;75.70;;;;;;4923210;29;20380;-83
2023/09/18 09:08:11;;;;;;;0.00;0.00;;;21.80;74.90;;;;;;4903174;29;20570;-84
2023/09/18 09:10:37;;;;;;;0.00;0.00;;;21.80;74.30;;;;;;4920793;29;20052;-83
2023/09/18 09:13:04;;;;;;;0.00;0.00;;;21.70;74.30;;;;;;4920315;29;20035;-84
2023/09/18 09:15:47;;;;;;;0.00;0.00;;;21.70;74.50;;;;;;4920096;29;20032;-82
2023/09/18 09:18:14;;;;;;;0.00;0.00;;;21.60;74.50;;;;;;4884892;29;20055;-82
2023/09/18 09:20:41;;;;;;;0.05;0.05;;;21.30;74.90;;;;;;4901717;29;20035;-82
2023/09/18 09:23:10;;;;;;;0.00;0.00;;;21.40;75.20;;;;;;4884625;29;20411;-83
2023/09/18 09:25:36;;;;;;;0.00;0.00;;;21.30;75.10;;;;;;4914217;29;20056;-82
2023/09/18 09:28:07;;;;;;;0.00;0.00;;;21.40;75.60;;;;;;4920831;29;20032;-82
2023/09/18 09:30:35;;;;;;;0.00;0.00;;;21.50;75.90;;;;;;4919729;29;20080;-82
2023/09/18 09:33:02;;;;;;;0.00;0.00;;;21.70;75.80;;;;;;4901974;29;20063;-82
2023/09/18 09:35:30;;;;;;;0.10;0.10;;;21.70;75.30;;;;;;4903398;29;20039;-82
2023/09/18 09:38:15;;;;;;;0.00;0.00;;;21.70;75.10;;;;;;4919857;29;20036;-82
2023/09/18 09:40:43;;;;;;;0.05;0.05;;;21.70;75.90;;;;;;4922012;29;20034;-83
2023/09/18 09:43:11;;;;;;;0.00;0.00;;;21.70;75.20;;;;;;4939279;29;20468;-82
2023/09/18 09:45:40;;;;;;;0.00;0.00;;;21.80;75.90;;;;;;4920525;29;20055;-83
2023/09/18 09:48:07;;;;;;;0.00;0.00;;;21.90;75.20;;;;;;4922202;29;20047;-82
2023/09/18 09:50:45;;;;;;;0.00;0.00;;;21.90;74.50;;;;;;4924890;29;20020;-82
2023/09/18 09:53:11;;;;;;;0.00;0.00;;;21.80;75.60;;;;;;4916856;29;20046;-82
2023/09/18 09:55:38;;;;;;;0.08;0.08;;;21.90;75.60;;;;;;4920492;29;20032;-83
2023/09/18 10:00:43;;;;;;;0.00;0.00;;;21.90;76.20;;;;;;4912375;29;20044;-83
2023/09/18 10:03:10;;;;;;;0.00;0.00;;;21.90;75.70;;;;;;4918643;29;20032;-84
2023/09/18 10:05:38;;;;;;;0.10;0.10;;;21.80;76.50;;;;;;4919494;29;20072;-83
2023/09/18 10:08:11;;;;;;;0.10;0.10;;;21.80;76.90;;;;;;4918705;29;20039;-82
2023/09/18 10:10:45;;;;;;;0.10;0.10;;;21.50;77.80;;;;;;4919308;29;20060;-82
2023/09/18 10:13:33;;;;;;;0.00;0.00;;;21.30;78.50;;;;;;4919547;29;20111;-82
2023/09/18 10:16:06;;;;;;;0.00;0.00;;;21.20;79.00;;;;;;4919706;29;20452;-83
2023/09/18 10:18:52;;;;;;;0.00;0.00;;;21.10;79.40;;;;;;4919307;29;20024;-82
2023/09/18 10:21:48;;;;;;;0.00;0.00;;;21.10;79.90;;;;;;4919326;29;20059;-82
2023/09/18 10:24:19;;;;;;;0.05;0.05;;;21.10;80.40;;;;;;4919022;29;20028;-82
2023/09/18 10:26:53;;;;;;;0.00;0.00;;;21.30;80.50;;;;;;4901236;29;20067;-83
2023/09/18 10:29:20;;;;;;;0.10;0.10;;;21.60;80.20;;;;;;4898550;29;20028;-83
2023/09/18 10:31:47;;;;;;;0.00;0.00;;;21.70;79.70;;;;;;4897722;29;20052;-83
2023/09/18 10:34:15;;;;;;;0.00;0.00;;;21.70;79.10;;;;;;4916833;29;20072;-82
2023/09/18 10:36:44;;;;;;;0.00;0.00;;;21.80;79.50;;;;;;4913008;29;20750;-83
2023/09/18 10:39:12;;;;;;;0.10;0.10;;;21.90;79.70;;;;;;4917333;29;20028;-82
2023/09/18 10:41:39;;;;;;;0.10;0.00;;;22.00;79.40;;;;;;4917742;29;20029;-83
2023/09/18 10:44:06;;;;;;;0.00;0.00;;;21.90;79.40;;;;;;4896179;29;20119;-82
2023/09/18 10:46:32;;;;;;;0.00;0.00;;;21.90;79.50;;;;;;4900219;29;20024;-83
2023/09/18 10:48:59;;;;;;;0.00;0.00;;;21.90;79.90;;;;;;4917392;29;20032;-83
2023/09/18 10:51:27;;;;;;;0.00;0.00;;;21.90;79.80;;;;;;4917208;29;20031;-81
2023/09/18 10:53:53;;;;;;;0.10;0.10;;;21.90;79.90;;;;;;4918253;29;20133;-81
2023/09/18 10:56:22;;;;;;;0.08;0.08;;;22.00;80.20;;;;;;4917972;29;20507;-85
2023/09/18 10:59:09;;;;;;;0.00;0.00;;;22.10;79.70;;;;;;4919753;29;20083;-83
2023/09/18 11:01:38;;;;;;;0.10;0.10;;;22.20;78.90;;;;;;4920462;29;20056;-84
2023/09/18 11:04:09;;;;;;;0.10;0.10;;;22.30;79.10;;;;;;4904099;29;20032;-84
2023/09/18 11:06:53;;;;;;;0.00;0.00;;;22.30;79.30;;;;;;4905101;29;20052;-84
2023/09/18 11:09:31;;;;;;;0.00;0.00;;;22.50;78.70;;;;;;4905823;29;20029;-84
2023/09/18 11:12:02;;;;;;;0.08;0.08;;;22.60;78.60;;;;;;4921017;29;20020;-84
2023/09/18 11:14:45;;;;;;;0.05;0.05;;;22.70;78.10;;;;;;4921524;29;20028;-83
2023/09/18 11:17:31;;;;;;;0.05;0.05;;;22.70;77.20;;;;;;4921245;29;20072;-84
2023/09/18 11:20:17;;;;;;;0.05;0.05;;;22.70;76.50;;;;;;4904149;29;20130;-84
2023/09/18 11:22:56;;;;;;;0.00;0.00;;;22.80;76.10;;;;;;4921291;29;20028;-84
2023/09/18 11:25:34;;;;;;;0.00;0.00;;;22.80;76.30;;;;;;4916848;29;20131;-81
2023/09/18 11:28:01;;;;;;;0.00;0.00;;;22.80;76.70;;;;;;4921695;29;20100;-88
2023/09/18 11:30:28;;;;;;;0.00;0.00;;;22.80;76.90;;;;;;4904505;29;20046;-86
2023/09/18 11:32:55;;;;;;;0.00;0.00;;;22.90;76.30;;;;;;4920732;29;20050;-82
2023/09/18 11:35:21;;;;;;;0.00;0.00;;;22.90;75.30;;;;;;4920927;29;20043;-84
2023/09/18 11:37:47;;;;;;;0.10;0.10;;;22.80;75.20;;;;;;4904354;29;20036;-84
2023/09/18 11:40:40;;;;;;;0.00;0.00;;;22.80;75.20;;;;;;4904049;29;20036;-85
2023/09/18 11:43:26;;;;;;;0.00;0.00;;;22.80;75.60;;;;;;4935546;29;20077;-84
2023/09/18 11:45:54;;;;;;;0.00;0.00;;;22.70;74.50;;;;;;4904084;29;20563;-85
2023/09/18 11:48:20;;;;;;;0.10;0.10;;;22.60;72.80;;;;;;4908604;29;20031;-84
2023/09/18 11:50:50;;;;;;;0.10;0.10;;;22.60;74.00;;;;;;4919394;29;20721;-86
2023/09/18 11:53:18;;;;;;;0.00;0.00;;;23.00;73.60;;;;;;4921011;29;20472;-86
2023/09/18 11:55:43;;;;;;;0.00;0.00;;;23.00;71.30;;;;;;4903755;29;20032;-86
2023/09/18 11:58:09;;;;;;;0.08;0.08;;;23.10;70.90;;;;;;4909484;29;20447;-86
2023/09/18 12:00:45;;;;;;;0.00;0.00;;;23.10;68.60;;;;;;4903014;29;20040;-85
2023/09/18 12:03:25;;;;;;;0.00;0.00;;;23.30;69.70;;;;;;4904190;29;20048;-86
2023/09/18 12:06:05;;;;;;;0.00;0.00;;;23.10;68.90;;;;;;4915660;29;20032;-85
2023/09/18 12:08:31;;;;;;;0.00;0.00;;;23.20;69.80;;;;;;4923368;29;20107;-84
2023/09/18 12:10:58;;;;;;;0.00;0.00;;;23.00;68.50;;;;;;4921491;29;20036;-85
2023/09/18 12:13:27;;;;;;;0.00;0.00;;;22.90;68.20;;;;;;4904172;29;20070;-85
2023/09/18 12:16:05;;;;;;;0.00;0.00;;;22.70;69.00;;;;;;4921369;29;20059;-84
2023/09/18 12:18:36;;;;;;;0.00;0.00;;;22.60;69.20;;;;;;4917759;29;20885;-84
2023/09/18 12:21:04;;;;;;;0.00;0.00;;;22.50;70.10;;;;;;4921405;29;20025;-85
2023/09/18 12:23:37;;;;;;;0.00;0.00;;;22.70;69.60;;;;;;4904511;29;20036;-86
2023/09/18 12:26:04;;;;;;;0.00;0.00;;;22.90;68.50;;;;;;4920522;29;20032;-85
2023/09/18 12:28:30;;;;;;;0.00;0.00;;;23.00;69.50;;;;;;4921557;29;20121;-84
2023/09/18 12:30:59;;;;;;;0.00;0.00;;;23.00;69.20;;;;;;4900573;29;20069;-85
2023/09/18 12:33:25;;;;;;;0.00;0.00;;;23.00;69.90;;;;;;4914309;29;20031;-84
2023/09/18 12:35:53;;;;;;;0.10;0.10;;;22.80;69.50;;;;;;4905146;29;20399;-84
2023/09/18 12:38:22;;;;;;;0.00;0.00;;;23.00;70.10;;;;;;4904335;29;20032;-85
2023/09/18 12:40:49;;;;;;;0.00;0.00;;;23.10;70.30;;;;;;4925354;29;20042;-84
2023/09/18 12:43:16;;;;;;;0.00;0.00;;;23.00;69.70;;;;;;4921460;29;20507;-85
2023/09/18 12:45:43;;;;;;;0.00;0.00;;;22.90;69.30;;;;;;4920521;29;20035;-85
2023/09/18 12:48:10;;;;;;;0.00;0.00;;;22.90;69.40;;;;;;4920451;29;20028;-85
2023/09/18 12:50:36;;;;;;;0.00;0.00;;;23.00;70.20;;;;;;4920669;29;20035;-86
2023/09/18 12:53:12;;;;;;;0.08;0.08;;;23.00;69.40;;;;;;4904053;29;20032;-85
2023/09/18 12:55:39;;;;;;;0.00;0.00;;;22.90;69.40;;;;;;4921076;29;20758;-85
2023/09/18 12:58:08;;;;;;;0.10;0.10;;;23.10;69.40;;;;;;4903022;29;20035;-85
2023/09/18 13:00:35;;;;;;;0.00;0.00;;;23.30;68.70;;;;;;4919916;29;20075;-86
2023/09/18 13:03:04;;;;;;;0.10;0.10;;;23.30;68.70;;;;;;4903090;29;20403;-85
2023/09/18 13:05:32;;;;;;;0.00;0.00;;;23.10;67.20;;;;;;4903632;29;20039;-85
2023/09/18 13:08:05;;;;;;;0.00;0.00;;;23.10;68.30;;;;;;4902181;29;20035;-86
2023/09/18 13:10:52;;;;;;;0.08;0.08;;;23.10;67.90;;;;;;4903224;29;20056;-85
2023/09/18 13:13:19;;;;;;;0.10;0.10;;;23.10;66.80;;;;;;4919790;29;20051;-86
2023/09/18 13:15:47;;;;;;;0.00;0.00;;;23.30;67.40;;;;;;4884794;29;20036;-86
2023/09/18 13:18:13;;;;;;;0.10;0.10;;;23.30;66.40;;;;;;4935444;29;20042;-85
2023/09/18 13:20:41;;;;;;;0.08;0.05;;;23.30;64.70;;;;;;4907676;29;20024;-86
2023/09/18 13:23:07;;;;;;;0.00;0.00;;;23.30;64.80;;;;;;4918911;29;20107;-86
2023/09/18 13:25:43;;;;;;;0.00;0.00;;;23.40;66.10;;;;;;4919272;29;20032;-86
2023/09/18 13:28:10;;;;;;;0.08;0.08;;;23.50;66.10;;;;;;4919908;29;20028;-84
2023/09/18 13:30:39;;;;;;;0.00;0.00;;;23.50;64.80;;;;;;4903693;29;20054;-86
2023/09/18 13:33:12;;;;;;;0.10;0.10;;;23.70;64.10;;;;;;4902935;29;20059;-85
2023/09/18 13:35:40;;;;;;;0.00;0.00;;;23.80;64.30;;;;;;4920454;29;20066;-86
2023/09/18 13:38:07;;;;;;;0.00;0.00;;;24.00;64.50;;;;;;4906405;29;20051;-86
2023/09/18 13:40:35;;;;;;;0.00;0.00;;;24.20;63.90;;;;;;4919319;29;20038;-86
2023/09/18 13:43:03;;;;;;;0.00;0.00;;;24.20;62.00;;;;;;4903674;29;20083;-86
2023/09/18 13:45:30;;;;;;;0.00;0.00;;;24.00;60.40;;;;;;4931811;29;20036;-83
2023/09/18 13:47:55;;;;;;;0.00;0.00;;;23.90;61.90;;;;;;4919531;29;20535;-83
2023/09/18 13:50:21;;;;;;;0.00;0.00;;;23.60;63.10;;;;;;4915920;29;20017;-83
2023/09/18 13:52:47;;;;;;;0.00;0.00;;;23.70;62.60;;;;;;4918857;29;20056;-82
2023/09/18 13:55:13;;;;;;;0.00;0.00;;;23.80;61.70;;;;;;4919128;29;20436;-82
2023/09/18 13:57:41;;;;;;;0.10;0.10;;;24.00;61.00;;;;;;4920804;29;20518;-80
2023/09/18 14:00:10;;;;;;;0.00;0.00;;;24.20;60.40;;;;;;4909473;29;20032;-82
2023/09/18 14:02:36;;;;;;;0.00;0.00;;;24.10;60.90;;;;;;4903982;29;20043;-82
2023/09/18 14:05:03;;;;;;;0.00;0.00;;;23.80;61.70;;;;;;4919396;29;20024;-82
2023/09/18 14:07:29;;;;;;;0.00;0.00;;;23.70;61.20;;;;;;4902272;29;20039;-81
2023/09/18 14:09:55;;;;;;;0.10;0.10;;;23.50;61.90;;;;;;4919538;29;20107;-81
2023/09/18 14:12:20;;;;;;;0.00;0.00;;;23.40;61.10;;;;;;4918692;29;20032;-81
2023/09/18 14:14:46;;;;;;;0.00;0.00;;;23.30;61.90;;;;;;4922152;29;20483;-81
2023/09/18 14:17:12;;;;;;;0.00;0.00;;;23.40;62.10;;;;;;4916057;29;20099;-80
2023/09/18 14:19:38;;;;;;;0.00;0.00;;;23.40;61.80;;;;;;4917519;29;20024;-81
2023/09/18 14:22:05;;;;;;;0.00;0.00;;;23.30;61.90;;;;;;4887253;29;20039;-81
2023/09/18 14:24:36;;;;;;;0.10;0.10;;;23.30;62.20;;;;;;4918283;29;20498;-81
2023/09/18 14:27:03;;;;;;;0.00;0.00;;;23.40;62.10;;;;;;4920983;29;20028;-81
2023/09/18 14:29:32;;;;;;;0.00;0.00;;;23.60;62.30;;;;;;4917300;29;20036;-81
2023/09/18 14:31:57;;;;;;;0.03;0.03;;;23.50;62.10;;;;;;4917296;29;20048;-81
2023/09/18 14:34:23;;;;;;;0.10;0.10;;;23.40;60.80;;;;;;4916791;29;20042;-81
2023/09/18 14:36:48;;;;;;;0.05;0.05;;;23.30;61.30;;;;;;4901041;29;20036;-81
2023/09/18 14:39:14;;;;;;;0.00;0.00;;;23.40;61.90;;;;;;4916935;29;20040;-80
2023/09/18 14:41:40;;;;;;;0.00;0.00;;;23.50;62.60;;;;;;4921049;29;20040;-81
2023/09/18 14:44:09;;;;;;;0.10;0.10;;;23.70;62.10;;;;;;4917240;29;20039;-81
2023/09/18 14:46:36;;;;;;;0.00;0.00;;;23.90;61.70;;;;;;4917681;29;20043;-81
2023/09/18 14:49:03;;;;;;;0.00;0.00;;;24.10;61.90;;;;;;4916601;29;20032;-81
2023/09/18 14:51:29;;;;;;;0.00;0.00;;;24.00;62.30;;;;;;4917249;29;20024;-81
2023/09/18 14:53:58;;;;;;;0.00;0.00;;;24.00;61.70;;;;;;4902054;29;20029;-81
2023/09/18 14:56:24;;;;;;;0.00;0.00;;;23.80;61.50;;;;;;4919790;29;20106;-81
2023/09/18 14:58:51;;;;;;;0.00;0.00;;;23.60;61.30;;;;;;4920745;29;20028;-81
2023/09/18 15:01:18;;;;;;;0.00;0.00;;;23.50;62.30;;;;;;4893029;29;20123;-81
2023/09/18 15:03:44;;;;;;;0.00;0.00;;;23.50;62.80;;;;;;4913864;29;20056;-81
2023/09/18 15:06:10;;;;;;;0.00;0.00;;;23.30;62.80;;;;;;4899933;29;20032;-80
2023/09/18 15:08:37;;;;;;;0.03;0.03;;;23.50;63.10;;;;;;4918729;29;20039;-81
2023/09/18 15:11:05;;;;;;;0.10;0.10;;;23.50;62.20;;;;;;4918031;29;20088;-81
2023/09/18 15:13:32;;;;;;;0.00;0.00;;;23.50;61.90;;;;;;4923794;29;20035;-81
2023/09/18 15:15:58;;;;;;;0.00;0.00;;;23.60;62.10;;;;;;4921974;29;20038;-81
2023/09/18 15:18:25;;;;;;;0.00;0.00;;;23.50;59.10;;;;;;4902715;29;20484;-81
2023/09/18 15:20:54;;;;;;;0.10;0.10;;;23.50;58.60;;;;;;4921479;29;20036;-81
2023/09/18 15:23:22;;;;;;;0.00;0.00;;;23.30;59.60;;;;;;4921949;29;20448;-80
2023/09/18 15:25:50;;;;;;;0.00;0.00;;;23.30;60.50;;;;;;4918308;29;20115;-80
2023/09/18 15:28:17;;;;;;;0.00;0.00;;;23.30;60.60;;;;;;4920010;29;20023;-80
2023/09/18 15:30:43;;;;;;;0.00;0.00;;;23.30;61.40;;;;;;4918888;29;20559;-80
2023/09/18 15:33:09;;;;;;;0.00;0.00;;;23.40;61.80;;;;;;4916042;29;20036;-80
2023/09/18 15:35:36;;;;;;;0.00;0.00;;;23.50;60.90;;;;;;4896716;29;20104;-81
2023/09/18 15:38:03;;;;;;;0.10;0.10;;;23.40;59.70;;;;;;4916243;29;20031;-80
2023/09/18 15:40:29;;;;;;;0.08;0.08;;;23.30;57.90;;;;;;4919634;29;20487;-81
2023/09/18 15:42:54;;;;;;;0.00;0.00;;;23.30;57.40;;;;;;4916428;29;20044;-80
2023/09/18 15:45:20;;;;;;;0.00;0.00;;;23.30;55.90;;;;;;4916895;29;20072;-80
2023/09/18 15:47:46;;;;;;;0.00;0.00;;;23.30;55.20;;;;;;4903566;29;20564;-81
2023/09/18 15:50:13;;;;;;;0.00;0.00;;;23.30;53.00;;;;;;4918098;29;20451;-81
2023/09/18 15:52:40;;;;;;;0.00;0.00;;;23.20;51.00;;;;;;4903372;29;20063;-82
2023/09/18 15:55:06;;;;;;;0.03;0.03;;;23.20;51.20;;;;;;4902535;29;20044;-82
2023/09/18 15:57:33;;;;;;;0.05;0.05;;;23.10;51.20;;;;;;4921634;29;20024;-83
2023/09/18 16:00:06;;;;;;;0.00;0.00;;;23.10;51.20;;;;;;4934847;29;20028;-82
2023/09/18 16:02:33;;;;;;;0.00;0.00;;;23.00;51.10;;;;;;4918614;29;20119;-83
2023/09/18 16:04:59;;;;;;;0.10;0.10;;;23.00;50.80;;;;;;4917450;29;20064;-82
2023/09/18 16:07:28;;;;;;;0.00;0.00;;;23.00;51.50;;;;;;4920942;29;20107;-80
2023/09/18 16:09:54;;;;;;;0.10;0.03;;;22.90;51.60;;;;;;4909999;29;20489;-80
2023/09/18 16:12:21;;;;;;;0.10;0.10;;;23.00;52.50;;;;;;4915482;29;20111;-80
2023/09/18 16:14:47;;;;;;;0.00;0.00;;;23.00;52.90;;;;;;4916952;29;20031;-80
2023/09/18 16:17:13;;;;;;;0.00;0.00;;;23.00;52.70;;;;;;4920924;29;20032;-80
2023/09/18 16:19:39;;;;;;;0.00;0.00;;;23.00;52.60;;;;;;4902621;29;20487;-80
2023/09/18 16:22:05;;;;;;;0.00;0.00;;;23.00;53.20;;;;;;4920421;29;20032;-80
2023/09/18 16:24:31;;;;;;;0.00;0.00;;;22.90;53.10;;;;;;4914757;29;20580;-79
2023/09/18 16:26:56;;;;;;;0.00;0.00;;;22.80;53.30;;;;;;4921281;29;20043;-79
2023/09/18 16:29:26;;;;;;;0.00;0.00;;;22.70;52.00;;;;;;4921420;29;20398;-83
2023/09/18 16:31:52;;;;;;;0.00;0.00;;;22.60;52.40;;;;;;4904126;29;20052;-79
2023/09/18 16:34:19;;;;;;;0.00;0.00;;;22.60;53.80;;;;;;4920483;29;20064;-79
2023/09/18 16:36:45;;;;;;;0.00;0.00;;;22.50;52.70;;;;;;4921368;29;20072;-79
2023/09/18 16:39:14;;;;;;;0.00;0.00;;;22.40;53.00;;;;;;4918497;29;20044;-81
2023/09/18 16:41:40;;;;;;;0.00;0.00;;;22.40;52.70;;;;;;4838865;29;20207;-78
2023/09/18 16:44:06;;;;;;;0.00;0.00;;;22.40;51.90;;;;;;4910402;29;20032;-78
2023/09/18 16:46:32;;;;;;;0.08;0.08;;;22.40;52.70;;;;;;4897274;29;20060;-78
2023/09/18 16:48:58;;;;;;;0.00;0.00;;;22.30;53.00;;;;;;4903872;29;20024;-76
2023/09/18 16:51:24;;;;;;;0.00;0.00;;;22.30;52.40;;;;;;4930813;29;20037;-76
2023/09/18 16:53:52;;;;;;;0.00;0.00;;;22.20;52.50;;;;;;4928108;29;21380;-75
2023/09/18 16:56:18;;;;;;;0.10;0.10;;;22.20;53.00;;;;;;4917444;29;20463;-78
2023/09/18 16:58:46;;;;;;;0.00;0.00;;;22.10;52.30;;;;;;4919056;29;20028;-77
2023/09/18 17:01:12;;;;;;;0.00;0.00;;;22.00;53.50;;;;;;4920350;29;20069;-77
2023/09/18 17:03:39;;;;;;;0.00;0.00;;;22.00;53.70;;;;;;4900154;29;20667;-78
2023/09/18 17:06:05;;;;;;;0.00;0.00;;;21.80;52.60;;;;;;4905021;29;20039;-77
2023/09/18 17:08:31;;;;;;;0.00;0.00;;;21.80;53.80;;;;;;4918015;29;20033;-78
2023/09/18 17:10:57;;;;;;;0.00;0.00;;;21.80;53.90;;;;;;4877288;29;20032;-78
2023/09/18 17:13:24;;;;;;;0.00;0.00;;;21.70;54.40;;;;;;4916316;29;20052;-78
2023/09/18 17:15:50;;;;;;;0.00;0.00;;;21.70;54.70;;;;;;4917406;29;20027;-77
2023/09/18 17:18:16;;;;;;;0.00;0.00;;;21.70;54.70;;;;;;4921007;29;20100;-77
2023/09/18 17:20:41;;;;;;;0.00;0.00;;;21.60;55.00;;;;;;4920443;29;20031;-75
2023/09/18 17:23:07;;;;;;;0.00;0.00;;;21.60;55.70;;;;;;4903543;29;20028;-76
2023/09/18 17:25:34;;;;;;;0.00;0.00;;;21.60;56.10;;;;;;4913440;29;20039;-80